Terminal Aerodrome Forecast
Issued by NWS

Home | Current Version | Previous Version | Text Only | Print | Product List | Glossary On
Versions: 1 2 3 4 5 6 7 8 9 10 11 12 13 14 15 16 17 18 19 20 21
000
FTUS43 KAPX 011100
TAFMBL
TAF
KMBL 011120Z 0112/0212 VRB03KT P6SM FEW090
     FM011700 28007KT P6SM FEW080
     FM020000 00000KT P6SM FEW090
     FM020400 00000KT 5SM BR SCT090
     FM020800 10003KT 1SM BR FEW003
      AMD LTD TO CLD VIS AND WIND=

USA.gov is the U.S. government's official web portal to all federal, state and local government web resources and services.